Auroraville, Wisconsin
Current Conditions -  °F | °C
As of 9:56 AM on Saturday 20 Dec 2014 (Local Time) from KY50 Reporting Station
Haze Haze  
Wind Chill: 28°   Ceiling: 2900
Heat Index: 28°   Visibility: 5mi
Dew Point: 25°   Wind: 0mph
Humidity: 89%   Direction: NA
Pressure: 30.26"   Gusts: NA
Location:  43.9938°N, 88.9686°W
Report Text: KY50 201556Z AUTO 00000KT 5SM UP BR BKN029 OVC034 M02/M04 A3026 RMK AO2 TSNO T10221038 UPB53 P0000 SLP256
Loading
Personal Weather Stations






























Interactive Weather Map New forecast layout! Learn more

10-Day Weather Forecast

Advertisements
Track Severe Weather on mobile